Alexander Maersk — OZRC2 — position and weather

sailwx.info

Track history (hours):
 
Tides and Currents Weather Stations Pressure Air Temp Water Temp Dewpoint Dewpoint Depression Visibility Wind Speed Wind Dir Waves Ship Positions

Alexander Maersk

Last reported at 2016-Nov-26 04:16 UTC. Time now 2016-Dec-04 22:30 UTC.
Position N 35°38' E 014°37'.
Warning: this ship's position is 8 days out of date.

Length 155 m; draft 9.4 m.

Type: Cargo ship. MMSI: 219470000.

Date/timePositionNaut miles runAvg speedWind from/ knotsBaromVisibWave heightAir tempDewpointWater temp
2016-Nov-26 04:16N 35°38' E 014°37'6 8.7
2016-Nov-26 03:32N 35°44' E 014°35'5 1.0
2016-Nov-25 22:18N 35°49' E 014°33'0 0.0
2016-Nov-25 19:18N 35°49' E 014°33'0 0.0
2016-Nov-25 18:33N 35°49' E 014°33'0 0.0
2016-Nov-25 17:33N 35°49' E 014°33'0 0.0
2016-Nov-25 16:33N 35°49' E 014°33'0 0.0
2016-Nov-25 15:27N 35°49' E 014°33'0 0.0
2016-Nov-25 14:33N 35°49' E 014°33'0 0.0
2016-Nov-25 13:33N 35°49' E 014°33'0 0.0
2016-Nov-25 12:09N 35°49' E 014°33'0 0.0
2016-Nov-25 11:33N 35°49' E 014°33'0 0.0
2016-Nov-25 10:24N 35°49' E 014°33'0 0.0
2016-Nov-25 08:33N 35°49' E 014°33'0 0.0
2016-Nov-25 07:30N 35°49' E 014°33'0 0.0
2016-Nov-25 06:27N 35°49' E 014°33'0 0.0
2016-Nov-25 05:33N 35°49' E 014°33'1 0.0
2016-Nov-24 09:33N 35°49' E 014°34'6 6.2
2016-Nov-24 08:33N 35°51' E 014°40'0 0.1
2016-Nov-24 07:33N 35°52' E 014°40'0 0.0
2016-Nov-24 06:33N 35°52' E 014°40'0 0.0
2016-Nov-24 05:33N 35°52' E 014°40'0 0.1
2016-Nov-24 04:33N 35°51' E 014°40'0 0.0
2016-Nov-24 03:33N 35°51' E 014°40'0 0.1
2016-Nov-24 02:33N 35°52' E 014°40'0 0.0
2016-Nov-24 01:30N 35°52' E 014°40'0 0.0
2016-Nov-24 00:33N 35°52' E 014°40'0 0.0
2016-Nov-23 23:33N 35°52' E 014°40'0 0.1
2016-Nov-23 22:33N 35°52' E 014°40'0 0.1
2016-Nov-23 21:33N 35°52' E 014°40'0 0.1
2016-Nov-23 20:33N 35°52' E 014°40'0 0.0
2016-Nov-23 19:33N 35°51' E 014°40'0 0.0
2016-Nov-23 18:33N 35°51' E 014°40'0 0.0
2016-Nov-23 17:33N 35°51' E 014°40'0 0.0
2016-Nov-23 16:30N 35°52' E 014°40'0 0.0
2016-Nov-23 15:33N 35°52' E 014°40'0 0.1
2016-Nov-23 14:33N 35°52' E 014°40'0 0.0
2016-Nov-23 13:33N 35°52' E 014°40'0 0.0
2016-Nov-23 12:30N 35°52' E 014°40'0 0.0
2016-Nov-23 11:33N 35°52' E 014°40'0 0.0
2016-Nov-23 10:33N 35°51' E 014°40'0 0.1
2016-Nov-23 09:33N 35°52' E 014°40'0 0.0
2016-Nov-23 08:33N 35°52' E 014°40'0 0.1
2016-Nov-23 07:33N 35°51' E 014°40'0 0.0
2016-Nov-23 06:33N 35°51' E 014°40'0 0.0
2016-Nov-23 03:33N 35°51' E 014°40'0 0.0
2016-Nov-23 02:27N 35°51' E 014°40'0 0.0
2016-Nov-23 00:33N 35°51' E 014°40'0 0.0
2016-Nov-22 23:27N 35°51' E 014°40'0 0.0
2016-Nov-22 22:33N 35°51' E 014°40'0 0.0
2016-Nov-22 20:33N 35°51' E 014°40'0 0.0
2016-Nov-22 19:30N 35°51' E 014°40'0 0.0
2016-Nov-22 17:06N 35°51' E 014°40'0 0.0
2016-Nov-22 16:30N 35°51' E 014°40'0 0.0
2016-Nov-22 15:33N 35°51' E 014°40'0 0.0
2016-Nov-22 14:30N 35°51' E 014°40'0 0.0
2016-Nov-22 13:33N 35°51' E 014°40'0 0.0
2016-Nov-22 10:33N 35°51' E 014°40'0 0.0
2016-Nov-22 09:27N 35°51' E 014°40'0 0.0
2016-Nov-22 08:33N 35°51' E 014°40'0 0.0
2016-Nov-22 07:24N 35°51' E 014°40'0 0.0
2016-Nov-22 04:33N 35°51' E 014°40'0 0.0
2016-Nov-22 03:33N 35°51' E 014°40'0 0.0
2016-Nov-22 02:12N 35°51' E 014°40'22 4.8
2016-Nov-21 21:33N 35°39' E 014°18'  
Track history (hours):
 
Tides and Currents Weather Stations Pressure Air Temp Water Temp Dewpoint Dewpoint Depression Visibility Wind Speed Wind Dir Waves Ship Positions

Alexander Maersk

Last reported at 2016-Nov-26 04:16 UTC. Time now 2016-Dec-04 22:30 UTC.
Position N 35°38' E 014°37'.
Warning: this ship's position is 8 days out of date.

Length 155 m; draft 9.4 m.

Type: Cargo ship. MMSI: 219470000.

Date/timePositionNaut miles runAvg speedWind from/ knotsBaromVisibWave heightAir tempDewpointWater temp
2016-Nov-26 04:16N 35°38' E 014°37'6 8.7
2016-Nov-26 03:32N 35°44' E 014°35'5 1.0
2016-Nov-25 22:18N 35°49' E 014°33'0 0.0
2016-Nov-25 19:18N 35°49' E 014°33'0 0.0
2016-Nov-25 18:33N 35°49' E 014°33'0 0.0
2016-Nov-25 17:33N 35°49' E 014°33'0 0.0
2016-Nov-25 16:33N 35°49' E 014°33'0 0.0
2016-Nov-25 15:27N 35°49' E 014°33'0 0.0
2016-Nov-25 14:33N 35°49' E 014°33'0 0.0
2016-Nov-25 13:33N 35°49' E 014°33'0 0.0
2016-Nov-25 12:09N 35°49' E 014°33'0 0.0
2016-Nov-25 11:33N 35°49' E 014°33'0 0.0
2016-Nov-25 10:24N 35°49' E 014°33'0 0.0
2016-Nov-25 08:33N 35°49' E 014°33'0 0.0
2016-Nov-25 07:30N 35°49' E 014°33'0 0.0
2016-Nov-25 06:27N 35°49' E 014°33'0 0.0
2016-Nov-25 05:33N 35°49' E 014°33'1 0.0
2016-Nov-24 09:33N 35°49' E 014°34'6 6.2
2016-Nov-24 08:33N 35°51' E 014°40'0 0.1
2016-Nov-24 07:33N 35°52' E 014°40'0 0.0
2016-Nov-24 06:33N 35°52' E 014°40'0 0.0
2016-Nov-24 05:33N 35°52' E 014°40'0 0.1
2016-Nov-24 04:33N 35°51' E 014°40'0 0.0
2016-Nov-24 03:33N 35°51' E 014°40'0 0.1
2016-Nov-24 02:33N 35°52' E 014°40'0 0.0
2016-Nov-24 01:30N 35°52' E 014°40'0 0.0
2016-Nov-24 00:33N 35°52' E 014°40'0 0.0
2016-Nov-23 23:33N 35°52' E 014°40'0 0.1
2016-Nov-23 22:33N 35°52' E 014°40'0 0.1
2016-Nov-23 21:33N 35°52' E 014°40'0 0.1
2016-Nov-23 20:33N 35°52' E 014°40'0 0.0
2016-Nov-23 19:33N 35°51' E 014°40'0 0.0
2016-Nov-23 18:33N 35°51' E 014°40'0 0.0
2016-Nov-23 17:33N 35°51' E 014°40'0 0.0
2016-Nov-23 16:30N 35°52' E 014°40'0 0.0
2016-Nov-23 15:33N 35°52' E 014°40'0 0.1
2016-Nov-23 14:33N 35°52' E 014°40'0 0.0
2016-Nov-23 13:33N 35°52' E 014°40'0 0.0
2016-Nov-23 12:30N 35°52' E 014°40'0 0.0
2016-Nov-23 11:33N 35°52' E 014°40'0 0.0
2016-Nov-23 10:33N 35°51' E 014°40'0 0.1
2016-Nov-23 09:33N 35°52' E 014°40'0 0.0
2016-Nov-23 08:33N 35°52' E 014°40'0 0.1
2016-Nov-23 07:33N 35°51' E 014°40'0 0.0
2016-Nov-23 06:33N 35°51' E 014°40'0 0.0
2016-Nov-23 03:33N 35°51' E 014°40'0 0.0
2016-Nov-23 02:27N 35°51' E 014°40'0 0.0
2016-Nov-23 00:33N 35°51' E 014°40'0 0.0
2016-Nov-22 23:27N 35°51' E 014°40'0 0.0
2016-Nov-22 22:33N 35°51' E 014°40'0 0.0
2016-Nov-22 20:33N 35°51' E 014°40'0 0.0
2016-Nov-22 19:30N 35°51' E 014°40'0 0.0
2016-Nov-22 17:06N 35°51' E 014°40'0 0.0
2016-Nov-22 16:30N 35°51' E 014°40'0 0.0
2016-Nov-22 15:33N 35°51' E 014°40'0 0.0
2016-Nov-22 14:30N 35°51' E 014°40'0 0.0
2016-Nov-22 13:33N 35°51' E 014°40'0 0.0
2016-Nov-22 10:33N 35°51' E 014°40'0 0.0
2016-Nov-22 09:27N 35°51' E 014°40'0 0.0
2016-Nov-22 08:33N 35°51' E 014°40'0 0.0
2016-Nov-22 07:24N 35°51' E 014°40'0 0.0
2016-Nov-22 04:33N 35°51' E 014°40'0 0.0
2016-Nov-22 03:33N 35°51' E 014°40'0 0.0
2016-Nov-22 02:12N 35°51' E 014°40'22 4.8
2016-Nov-21 21:33N 35°39' E 014°18'  

Dump ship's entire track history